createdAt,value
2023-12-12T00:02:01.327Z,213.48
2023-12-12T00:04:28.201Z,234.32
2023-12-12T00:06:55.089Z,222.00
2023-12-12T00:09:21.888Z,167.15
2023-12-12T00:11:48.699Z,162.27
2023-12-12T00:14:15.526Z,171.25
2023-12-12T00:16:42.320Z,178.05
2023-12-12T00:19:10.138Z,163.90
2023-12-12T00:21:37.056Z,177.70
2023-12-12T00:24:04.039Z,168.33
2023-12-12T00:26:30.897Z,174.13
2023-12-12T00:28:57.745Z,183.20
2023-12-12T00:31:24.649Z,185.55
2023-12-12T00:33:51.629Z,207.93
2023-12-12T00:36:18.580Z,232.98
2023-12-12T00:38:45.372Z,339.63
2023-12-12T00:41:12.418Z,312.13
2023-12-12T00:43:41.338Z,347.03
2023-12-12T00:46:08.194Z,334.58
2023-12-12T00:48:35.158Z,331.10
2023-12-12T00:51:01.957Z,289.77
2023-12-12T00:53:29.042Z,330.30
2023-12-12T00:55:55.852Z,354.65
2023-12-12T00:58:22.705Z,376.50
2023-12-12T01:00:49.641Z,413.15
2023-12-12T01:03:16.538Z,396.95
2023-12-12T01:05:43.684Z,445.67
2023-12-12T01:08:10.537Z,468.75
2023-12-12T01:10:37.582Z,476.30
2023-12-12T01:13:05.532Z,574.70
2023-12-12T01:15:32.465Z,587.50
2023-12-12T01:17:59.593Z,569.92
2023-12-12T01:20:26.481Z,532.45
2023-12-12T01:22:53.608Z,552.17
2023-12-12T01:25:20.455Z,548.33
2023-12-12T01:27:47.330Z,599.70
2023-12-12T01:30:14.304Z,569.88
2023-12-12T01:32:41.222Z,533.45
2023-12-12T01:35:08.538Z,597.83
2023-12-12T01:37:35.667Z,382.93
2023-12-12T01:40:03.068Z,413.88
2023-12-12T01:42:30.051Z,511.02
2023-12-12T01:44:56.855Z,530.78
2023-12-12T01:47:23.769Z,563.40
2023-12-12T01:49:50.887Z,568.13
2023-12-12T01:52:18.114Z,570.60
2023-12-12T01:54:48.691Z,591.88
2023-12-12T01:57:18.016Z,585.33
2023-12-12T01:59:47.148Z,598.17
2023-12-12T02:02:17.915Z,575.25
2023-12-12T02:04:47.089Z,561.58
2023-12-12T02:07:14.553Z,539.05
2023-12-12T02:09:41.727Z,538.20
2023-12-12T02:12:08.571Z,553.05
2023-12-12T02:14:38.317Z,561.13
2023-12-12T02:17:05.763Z,542.67
2023-12-12T02:19:32.692Z,593.73
2023-12-12T02:21:59.698Z,543.53
2023-12-12T02:24:26.550Z,521.70
2023-12-12T02:26:53.633Z,515.95
2023-12-12T02:29:20.460Z,474.45
2023-12-12T02:31:47.239Z,583.97
2023-12-12T02:34:14.123Z,589.47
2023-12-12T02:36:40.913Z,601.88
2023-12-12T02:39:07.801Z,598.15
2023-12-12T02:41:34.629Z,633.67
2023-12-12T02:44:01.516Z,698.70
2023-12-12T02:46:28.328Z,610.92
2023-12-12T02:48:55.297Z,628.95
2023-12-12T02:51:22.146Z,640.40
2023-12-12T02:53:49.034Z,612.60
2023-12-12T02:56:15.816Z,596.53
2023-12-12T02:58:42.586Z,574.75
2023-12-12T03:01:13.360Z,559.90
2023-12-12T03:03:40.486Z,604.25
2023-12-12T03:06:10.303Z,611.55
2023-12-12T03:08:37.121Z,626.45
2023-12-12T03:11:04.015Z,603.85
2023-12-12T03:13:30.917Z,596.77
2023-12-12T03:15:57.837Z,578.35
2023-12-12T03:18:24.849Z,632.30
2023-12-12T03:20:51.750Z,575.45
2023-12-12T03:23:18.589Z,615.85
2023-12-12T03:25:45.401Z,614.20
2023-12-12T03:28:12.607Z,605.23
2023-12-12T03:30:39.427Z,551.28
2023-12-12T03:33:07.499Z,588.35
2023-12-12T03:35:34.340Z,603.87
2023-12-12T03:38:01.334Z,597.83
2023-12-12T03:40:28.173Z,618.57
2023-12-12T03:42:55.122Z,557.75
2023-12-12T03:45:21.884Z,534.40
2023-12-12T03:47:49.066Z,571.00
2023-12-12T03:50:16.013Z,558.97
2023-12-12T03:52:43.252Z,526.47
2023-12-12T03:55:11.328Z,534.88
2023-12-12T03:57:38.180Z,560.33
2023-12-12T04:00:08.294Z,559.38
2023-12-12T04:02:44.337Z,550.67
2023-12-12T04:05:11.339Z,511.27
2023-12-12T04:07:39.231Z,508.45
2023-12-12T04:10:07.807Z,518.83
2023-12-12T04:12:35.674Z,475.53
2023-12-12T04:15:02.978Z,513.95
2023-12-12T04:17:30.677Z,518.20
2023-12-12T04:19:57.934Z,523.15
2023-12-12T04:22:24.798Z,508.35
2023-12-12T04:24:51.752Z,542.78
2023-12-12T04:27:18.625Z,535.42
2023-12-12T04:29:45.390Z,529.80
2023-12-12T04:32:12.228Z,499.13
2023-12-12T04:34:39.048Z,494.92
2023-12-12T04:37:06.033Z,561.33
2023-12-12T04:39:32.852Z,456.38
2023-12-12T04:41:59.634Z,463.80
2023-12-12T04:44:26.710Z,472.88
2023-12-12T04:46:53.650Z,458.97
2023-12-12T04:49:21.823Z,440.83
2023-12-12T04:51:48.747Z,467.77
2023-12-12T04:54:15.644Z,448.38
2023-12-12T04:56:42.425Z,426.75
2023-12-12T04:59:09.192Z,444.02
2023-12-12T05:01:36.090Z,420.23
2023-12-12T05:04:03.052Z,392.92
2023-12-12T05:06:29.925Z,409.20
2023-12-12T05:08:56.978Z,419.85
2023-12-12T05:11:23.771Z,484.53
2023-12-12T05:13:50.656Z,426.48
2023-12-12T05:16:24.625Z,471.55
2023-12-12T05:18:58.680Z,481.25
2023-12-12T05:21:26.993Z,475.88
2023-12-12T05:23:53.832Z,493.35
2023-12-12T05:26:21.023Z,458.88
2023-12-12T05:28:48.093Z,518.97
2023-12-12T05:31:14.996Z,488.13
2023-12-12T05:33:42.397Z,469.20
2023-12-12T05:36:10.398Z,465.88
2023-12-12T05:38:39.968Z,388.88
2023-12-12T05:41:07.555Z,445.60
2023-12-12T05:43:34.550Z,435.48
2023-12-12T05:46:01.583Z,448.00
2023-12-12T05:48:28.399Z,446.35
2023-12-12T05:50:56.110Z,401.98
2023-12-12T05:53:22.940Z,563.97
2023-12-12T05:55:49.741Z,552.72
2023-12-12T05:58:16.584Z,507.98
2023-12-12T06:00:43.553Z,524.83
2023-12-12T06:03:10.344Z,546.55
2023-12-12T06:05:37.153Z,512.10
2023-12-12T06:08:04.100Z,553.65
2023-12-12T06:10:30.962Z,533.17
2023-12-12T06:12:58.533Z,483.90
2023-12-12T06:15:25.407Z,447.05
2023-12-12T06:17:52.306Z,362.67
2023-12-12T06:20:19.115Z,398.30
2023-12-12T06:22:46.707Z,413.08
2023-12-12T06:25:13.702Z,413.80
2023-12-12T06:27:40.586Z,425.58
2023-12-12T06:30:08.501Z,410.17
2023-12-12T06:32:35.623Z,383.45
2023-12-12T06:35:05.366Z,404.70
2023-12-12T06:37:32.678Z,373.05
2023-12-12T06:39:59.878Z,364.13
2023-12-12T06:42:27.021Z,365.67
2023-12-12T06:44:53.910Z,374.17
2023-12-12T06:47:21.197Z,417.48
2023-12-12T06:49:48.315Z,455.27
2023-12-12T06:52:15.193Z,417.50
2023-12-12T06:54:42.074Z,472.15
2023-12-12T06:57:08.950Z,426.97
2023-12-12T06:59:35.724Z,438.75
2023-12-12T07:02:03.162Z,392.40
2023-12-12T07:04:30.234Z,410.98
2023-12-12T07:06:57.192Z,372.92
2023-12-12T07:09:24.035Z,381.30
2023-12-12T07:11:50.890Z,386.98
2023-12-12T07:14:17.671Z,385.80
2023-12-12T07:16:44.527Z,386.02
2023-12-12T07:19:11.446Z,389.70
2023-12-12T07:21:45.653Z,387.50
2023-12-12T07:24:15.725Z,380.40
2023-12-12T07:26:46.707Z,387.75
2023-12-12T07:29:18.529Z,377.20
2023-12-12T07:31:46.815Z,273.70
2023-12-12T07:34:14.331Z,301.77
2023-12-12T07:36:42.441Z,314.40
2023-12-12T07:39:09.426Z,321.13
2023-12-12T07:41:36.360Z,339.70
2023-12-12T07:44:04.220Z,319.07
2023-12-12T07:46:36.801Z,331.10
2023-12-12T07:49:03.993Z,356.70
2023-12-12T07:51:33.639Z,625.63
2023-12-12T07:54:07.160Z,499.03
2023-12-12T07:56:34.163Z,499.00
2023-12-12T07:59:01.070Z,392.27
2023-12-12T08:01:28.698Z,512.28
2023-12-12T08:03:56.183Z,370.20
2023-12-12T08:06:23.397Z,625.65
2023-12-12T08:08:50.340Z,607.80
2023-12-12T08:11:17.278Z,299.48
2023-12-12T08:13:45.079Z,251.60
2023-12-12T08:16:12.402Z,227.57
2023-12-12T08:18:39.537Z,228.00
2023-12-12T08:21:07.654Z,217.40
2023-12-12T08:23:36.019Z,210.18
2023-12-12T08:26:03.333Z,517.40
2023-12-12T08:28:30.341Z,504.88
2023-12-12T08:30:57.750Z,550.63
2023-12-12T08:33:25.217Z,361.07
2023-12-12T08:35:52.240Z,336.37
2023-12-12T08:38:19.177Z,308.67
2023-12-12T08:40:46.451Z,365.65
2023-12-12T08:43:13.453Z,470.65
2023-12-12T08:45:40.603Z,999.90
2023-12-12T08:48:08.726Z,999.90
2023-12-12T08:50:36.856Z,999.90
2023-12-12T08:53:04.453Z,997.55
2023-12-12T08:55:31.648Z,999.90
2023-12-12T08:57:58.667Z,999.90
2023-12-12T09:00:25.743Z,999.90
2023-12-12T09:02:52.972Z,999.90
2023-12-12T09:05:19.900Z,999.90
2023-12-12T09:07:46.976Z,999.90
2023-12-12T09:10:14.116Z,999.90
2023-12-12T09:12:41.422Z,999.90
2023-12-12T09:15:08.732Z,999.90
2023-12-12T09:17:36.269Z,999.90
2023-12-12T09:20:04.201Z,999.90
2023-12-12T09:22:31.874Z,999.90
2023-12-12T09:24:58.882Z,999.90
2023-12-12T09:27:25.843Z,999.90
2023-12-12T09:29:54.668Z,999.90
2023-12-12T09:32:22.577Z,999.90
2023-12-12T09:34:49.456Z,999.90
2023-12-12T09:37:17.129Z,999.90
2023-12-12T09:39:43.976Z,999.90
2023-12-12T09:42:18.073Z,999.90
2023-12-12T09:45:01.307Z,999.90
2023-12-12T09:47:30.256Z,999.90
2023-12-12T09:49:59.620Z,999.90
2023-12-12T09:52:29.443Z,999.90
2023-12-12T09:55:00.265Z,999.90
2023-12-12T09:57:30.729Z,987.28
2023-12-12T09:59:59.360Z,999.90
2023-12-12T10:02:35.221Z,999.90
2023-12-12T10:05:05.985Z,999.90
2023-12-12T10:07:34.901Z,999.90
2023-12-12T10:10:06.829Z,998.78
2023-12-12T10:12:33.870Z,959.42
2023-12-12T10:15:00.837Z,999.90
2023-12-12T10:17:28.452Z,999.90
2023-12-12T10:20:01.321Z,999.90
2023-12-12T10:22:32.906Z,999.90
2023-12-12T10:25:15.855Z,999.90
2023-12-12T10:27:43.772Z,999.90
2023-12-12T10:30:14.274Z,999.90
2023-12-12T10:32:41.722Z,999.90
2023-12-12T10:35:08.873Z,929.38
2023-12-12T10:37:35.977Z,903.63
2023-12-12T10:40:13.680Z,969.25
2023-12-12T10:42:43.829Z,957.73
2023-12-12T10:45:15.600Z,999.90
2023-12-12T10:47:48.274Z,917.63
2023-12-12T10:50:16.985Z,956.80
2023-12-12T10:52:46.422Z,865.60
2023-12-12T10:55:17.554Z,683.60
2023-12-12T10:57:48.598Z,783.97
2023-12-12T11:00:19.486Z,647.17
2023-12-12T11:02:49.796Z,698.15
2023-12-12T11:05:17.562Z,655.80
2023-12-12T11:07:49.689Z,618.15
2023-12-12T11:10:23.157Z,560.00
2023-12-12T11:12:57.909Z,940.22
2023-12-12T11:15:27.480Z,999.90
2023-12-12T11:17:54.846Z,908.00
2023-12-12T11:20:22.946Z,999.90
2023-12-12T11:22:52.903Z,930.37
2023-12-12T11:25:21.879Z,999.90
2023-12-12T11:27:53.652Z,974.45
2023-12-12T11:30:30.186Z,991.30
2023-12-12T11:32:57.566Z,999.90
2023-12-12T11:35:27.209Z,996.20
2023-12-12T11:37:55.333Z,999.90
2023-12-12T11:40:24.824Z,999.90
2023-12-12T11:42:53.190Z,999.90
2023-12-12T11:45:33.905Z,999.90
2023-12-12T11:48:03.522Z,999.90
2023-12-12T11:50:32.091Z,999.90
2023-12-12T11:52:59.905Z,999.90
2023-12-12T11:55:32.431Z,999.90
2023-12-12T11:58:02.973Z,999.90
2023-12-12T12:00:34.612Z,999.90
2023-12-12T12:03:02.488Z,999.90
2023-12-12T12:05:29.775Z,999.90
2023-12-12T12:07:57.309Z,999.90
2023-12-12T12:10:25.484Z,999.90
2023-12-12T12:13:02.275Z,995.90
2023-12-12T12:15:29.619Z,848.25
2023-12-12T12:17:59.492Z,683.03
2023-12-12T12:20:27.671Z,973.25
2023-12-12T12:22:55.127Z,986.97
2023-12-12T12:25:28.443Z,794.80
2023-12-12T12:27:57.101Z,667.80
2023-12-12T12:30:26.472Z,683.17
2023-12-12T12:33:04.844Z,999.90
2023-12-12T12:35:32.358Z,996.30
2023-12-12T12:37:59.973Z,994.15
2023-12-12T12:40:35.574Z,880.50
2023-12-12T12:43:06.100Z,811.00
2023-12-12T12:45:34.357Z,883.03
2023-12-12T12:48:01.523Z,999.90
2023-12-12T12:50:28.628Z,946.42
2023-12-12T12:52:55.844Z,834.92
2023-12-12T12:55:23.077Z,884.85
2023-12-12T12:57:50.303Z,441.48
2023-12-12T13:00:18.462Z,344.38
2023-12-12T13:02:46.155Z,318.27
2023-12-12T13:05:13.578Z,218.45
2023-12-12T13:07:40.951Z,201.63
2023-12-12T13:10:11.376Z,266.30
2023-12-12T13:12:41.595Z,266.13
2023-12-12T13:15:12.248Z,367.60
2023-12-12T13:17:39.780Z,355.17
2023-12-12T13:20:10.926Z,282.52
2023-12-12T13:22:45.781Z,321.73
2023-12-12T13:25:14.754Z,225.63
2023-12-12T13:27:43.124Z,307.70
2023-12-12T13:30:11.742Z,278.42
2023-12-12T13:32:55.988Z,336.73
2023-12-12T13:37:57.219Z,299.50
2023-12-12T13:40:27.578Z,325.25
2023-12-12T13:43:02.182Z,449.83
2023-12-12T13:45:29.273Z,650.28
2023-12-12T13:47:57.432Z,977.80
2023-12-12T13:50:24.521Z,954.45
2023-12-12T13:52:53.973Z,993.20
2023-12-12T13:55:21.071Z,986.17
2023-12-12T13:57:48.012Z,999.90
2023-12-12T14:00:18.374Z,927.13
2023-12-12T14:02:46.178Z,997.25
2023-12-12T14:05:14.645Z,993.80
2023-12-12T14:07:42.235Z,926.65
2023-12-12T14:10:09.813Z,748.65
2023-12-12T14:12:37.165Z,764.13
2023-12-12T14:15:05.006Z,844.13
2023-12-12T14:17:32.247Z,891.05
2023-12-12T14:19:59.582Z,982.95
2023-12-12T14:22:26.865Z,999.90
2023-12-12T14:24:53.954Z,998.25
2023-12-12T14:27:21.813Z,919.80
2023-12-12T14:29:49.137Z,982.05
2023-12-12T14:32:22.408Z,970.72
2023-12-12T14:34:49.514Z,999.90
2023-12-12T14:37:16.713Z,999.90
2023-12-12T14:39:46.229Z,999.90
2023-12-12T14:42:13.143Z,948.75
2023-12-12T14:44:48.908Z,999.90
2023-12-12T14:47:18.504Z,999.90
2023-12-12T14:49:45.679Z,999.90
2023-12-12T14:52:13.019Z,999.90
2023-12-12T14:54:43.625Z,999.90
2023-12-12T14:57:17.167Z,999.90
2023-12-12T14:59:47.921Z,999.90
2023-12-12T15:02:14.985Z,999.90
2023-12-12T15:04:42.067Z,999.90
2023-12-12T15:07:09.374Z,999.90
2023-12-12T15:09:36.480Z,882.50
2023-12-12T15:12:07.012Z,967.28
2023-12-12T15:14:43.116Z,725.67
2023-12-12T15:17:10.155Z,999.90
2023-12-12T15:19:37.370Z,999.90
2023-12-12T15:22:04.937Z,999.90
2023-12-12T15:24:58.026Z,999.90
2023-12-12T15:27:27.080Z,999.90
2023-12-12T15:30:01.695Z,999.90
2023-12-12T15:32:28.855Z,999.90
2023-12-12T15:34:56.552Z,999.90
2023-12-12T15:37:23.720Z,999.90
2023-12-12T15:39:53.926Z,999.90
2023-12-12T15:42:20.939Z,999.90
2023-12-12T15:44:48.003Z,999.90
2023-12-12T15:47:15.192Z,999.90
2023-12-12T15:49:42.745Z,999.90
2023-12-12T15:52:10.321Z,998.95
2023-12-12T15:54:37.902Z,988.13
2023-12-12T15:57:05.447Z,999.90
2023-12-12T15:59:36.563Z,999.90
2023-12-12T16:02:03.781Z,999.90
2023-12-12T16:04:30.888Z,342.10
2023-12-12T16:06:57.860Z,409.52
2023-12-12T16:09:25.068Z,342.60
2023-12-12T16:11:53.598Z,396.38
2023-12-12T16:14:20.726Z,507.85
2023-12-12T16:16:47.895Z,560.72
2023-12-12T16:19:15.074Z,910.60
2023-12-12T16:21:42.397Z,932.57
2023-12-12T16:24:10.681Z,956.95
2023-12-12T16:26:37.884Z,958.20
2023-12-12T16:29:05.023Z,921.83
2023-12-12T16:31:32.184Z,986.40
2023-12-12T16:33:59.559Z,821.40
2023-12-12T16:36:27.691Z,709.97
2023-12-12T16:39:01.192Z,597.28
2023-12-12T16:41:28.894Z,704.67
2023-12-12T16:43:56.609Z,678.05
2023-12-12T16:46:23.693Z,633.08
2023-12-12T16:48:50.908Z,595.72
2023-12-12T16:51:18.215Z,621.17
2023-12-12T16:53:45.583Z,640.22
2023-12-12T16:56:14.241Z,746.70
2023-12-12T16:58:41.987Z,818.95
2023-12-12T17:01:09.172Z,798.43
2023-12-12T17:03:36.754Z,792.90
2023-12-12T17:06:04.930Z,710.13
2023-12-12T17:08:32.194Z,836.00
2023-12-12T17:11:00.922Z,812.05
2023-12-12T17:13:27.985Z,799.70
2023-12-12T17:15:59.009Z,856.67
2023-12-12T17:18:28.166Z,877.47
2023-12-12T17:21:06.680Z,781.63
2023-12-12T17:23:51.110Z,841.30
2023-12-12T17:26:24.007Z,796.95
2023-12-12T17:28:51.170Z,852.73
2023-12-12T17:31:18.354Z,821.60
2023-12-12T17:33:45.563Z,782.13
2023-12-12T17:36:15.284Z,764.30
2023-12-12T17:38:44.301Z,730.88
2023-12-12T17:41:16.815Z,788.28
2023-12-12T17:43:44.563Z,772.95
2023-12-12T17:46:12.049Z,831.47
2023-12-12T17:48:40.849Z,852.55
2023-12-12T17:51:12.020Z,883.67
2023-12-12T17:53:39.213Z,948.10
2023-12-12T17:56:07.560Z,942.42
2023-12-12T17:58:35.733Z,904.83
2023-12-12T18:01:02.883Z,899.38
2023-12-12T18:03:31.238Z,889.90
2023-12-12T18:05:58.565Z,995.15
2023-12-12T18:08:28.133Z,899.65
2023-12-12T18:10:55.235Z,999.90
2023-12-12T18:13:24.036Z,999.90
2023-12-12T18:15:51.097Z,999.90
2023-12-12T18:18:18.494Z,999.90
2023-12-12T18:20:49.162Z,999.90
2023-12-12T18:23:16.274Z,999.90
2023-12-12T18:25:43.906Z,999.90
2023-12-12T18:28:11.567Z,999.90
2023-12-12T18:30:44.680Z,999.90
2023-12-12T18:33:12.111Z,999.90
2023-12-12T18:35:39.424Z,999.90
2023-12-12T18:38:07.025Z,999.90
2023-12-12T18:41:06.297Z,999.90
2023-12-12T18:43:33.430Z,999.90
2023-12-12T18:46:00.515Z,999.90
2023-12-12T18:48:28.491Z,999.90
2023-12-12T18:50:55.782Z,999.90
2023-12-12T18:53:22.867Z,999.90
2023-12-12T18:55:52.042Z,999.90
2023-12-12T18:58:19.335Z,999.90
2023-12-12T19:00:46.468Z,999.90
2023-12-12T19:03:13.852Z,999.90
2023-12-12T19:05:41.026Z,999.90
2023-12-12T19:08:08.432Z,999.90
2023-12-12T19:10:37.445Z,914.75
2023-12-12T19:13:04.663Z,788.10
2023-12-12T19:15:32.086Z,841.28
2023-12-12T19:17:59.171Z,984.20
2023-12-12T19:20:27.120Z,999.90
2023-12-12T19:22:54.173Z,999.90
2023-12-12T19:25:21.318Z,999.90
2023-12-12T19:27:50.673Z,999.90
2023-12-12T19:30:18.014Z,999.90
2023-12-12T19:32:45.142Z,999.90
2023-12-12T19:35:13.487Z,999.90
2023-12-12T19:37:40.651Z,999.90
2023-12-12T19:40:09.108Z,999.90
2023-12-12T19:42:36.267Z,999.90
2023-12-12T19:45:04.289Z,999.90
2023-12-12T19:47:31.877Z,999.90
2023-12-12T19:50:05.599Z,999.90
2023-12-12T19:53:05.236Z,999.90
2023-12-12T19:58:26.141Z,999.90
2023-12-12T20:00:53.404Z,999.90
2023-12-12T20:03:24.550Z,999.90
2023-12-12T20:05:53.037Z,999.90
2023-12-12T20:08:20.003Z,999.90
2023-12-12T20:10:47.163Z,999.90
2023-12-12T20:13:16.391Z,999.90
2023-12-12T20:15:43.815Z,999.90
2023-12-12T20:18:10.931Z,999.90
2023-12-12T20:20:40.198Z,999.90
2023-12-12T20:23:07.168Z,999.90
2023-12-12T20:25:34.289Z,999.90
2023-12-12T20:28:06.288Z,999.90
2023-12-12T20:30:36.264Z,999.90
2023-12-12T20:33:04.018Z,999.90
2023-12-12T20:35:31.351Z,999.90
2023-12-12T20:37:58.671Z,999.90
2023-12-12T20:40:25.729Z,999.90
2023-12-12T20:42:52.737Z,999.90
2023-12-12T20:45:19.747Z,999.90
2023-12-12T20:47:49.145Z,999.90
2023-12-12T20:50:16.259Z,999.90
2023-12-12T20:52:43.406Z,999.90
2023-12-12T20:55:11.123Z,999.90
2023-12-12T20:57:38.607Z,999.90
2023-12-12T21:00:10.772Z,999.90
2023-12-12T21:02:38.373Z,999.90
2023-12-12T21:05:05.875Z,999.90
2023-12-12T21:07:33.532Z,999.90
2023-12-12T21:10:00.905Z,999.90
2023-12-12T21:12:28.262Z,999.90
2023-12-12T21:15:09.004Z,999.90
2023-12-12T21:17:56.668Z,999.90
2023-12-12T21:20:48.996Z,999.90
2023-12-12T21:23:16.034Z,999.90
2023-12-12T21:25:43.269Z,999.90
2023-12-12T21:28:10.318Z,999.90
2023-12-12T21:30:39.596Z,999.90
2023-12-12T21:33:07.101Z,999.90
2023-12-12T21:35:34.633Z,999.90
2023-12-12T21:38:01.672Z,999.90
2023-12-12T21:40:32.366Z,999.90
2023-12-12T21:42:59.428Z,999.90
2023-12-12T21:45:27.053Z,999.90
2023-12-12T21:47:55.410Z,999.90
2023-12-12T21:50:22.830Z,999.90
2023-12-12T21:52:49.973Z,999.90
2023-12-12T21:55:20.545Z,999.90
2023-12-12T21:57:47.789Z,999.90
2023-12-12T22:04:15.727Z,999.90
2023-12-12T22:06:42.786Z,999.90
2023-12-12T22:09:09.853Z,999.90
2023-12-12T22:11:42.624Z,999.90
2023-12-12T22:14:16.355Z,999.90
2023-12-12T22:16:43.567Z,999.90
2023-12-12T22:19:10.629Z,999.90
2023-12-12T22:21:38.203Z,999.90
2023-12-12T22:24:06.312Z,999.90
2023-12-12T22:26:33.228Z,999.90
2023-12-12T22:29:03.324Z,999.90
2023-12-12T22:31:30.627Z,999.90
2023-12-12T22:33:57.943Z,999.90
2023-12-12T22:36:24.975Z,999.90
2023-12-12T22:39:27.814Z,999.90
2023-12-12T22:41:53.245Z,999.90
2023-12-12T22:44:20.849Z,999.90
2023-12-12T22:46:50.782Z,999.90
2023-12-12T22:49:17.883Z,999.90
2023-12-12T22:51:45.305Z,999.90
2023-12-12T22:54:12.291Z,999.90
2023-12-12T22:56:39.271Z,999.90
2023-12-12T22:59:09.446Z,999.90
2023-12-12T23:01:42.455Z,999.90
2023-12-12T23:04:10.793Z,999.90
2023-12-12T23:06:37.975Z,999.90
2023-12-12T23:09:07.249Z,999.90
2023-12-12T23:11:36.953Z,999.90
2023-12-12T23:14:04.587Z,999.90
2023-12-12T23:16:34.209Z,999.90
2023-12-12T23:19:01.623Z,999.90
2023-12-12T23:21:32.464Z,999.90
2023-12-12T23:23:59.615Z,999.90
2023-12-12T23:26:26.869Z,999.90
2023-12-12T23:29:14.130Z,999.90
2023-12-12T23:31:44.525Z,999.90
2023-12-12T23:34:14.766Z,999.90
2023-12-12T23:36:44.859Z,999.90
2023-12-12T23:39:11.868Z,999.90
2023-12-12T23:41:43.813Z,999.90
2023-12-12T23:44:10.965Z,999.90
2023-12-12T23:46:42.916Z,999.90
2023-12-12T23:52:07.983Z,999.90
2023-12-12T23:54:35.668Z,999.90
2023-12-12T23:57:04.409Z,999.90
2023-12-12T23:59:31.524Z,999.90
